sensor_id;sensor_type;location;lat;lon;timestamp;P1;durP1;ratioP1;P2;durP2;ratioP2
72037;SDS011;59900;50.788;12.904;2023-01-05T00:00:09;2.40;;;1.00;;
72037;SDS011;59900;50.788;12.904;2023-01-05T00:02:35;2.75;;;1.02;;
72037;SDS011;59900;50.788;12.904;2023-01-05T00:05:00;1.80;;;1.00;;
72037;SDS011;59900;50.788;12.904;2023-01-05T00:07:25;2.03;;;1.20;;
72037;SDS011;59900;50.788;12.904;2023-01-05T00:09:51;2.23;;;1.30;;
72037;SDS011;59900;50.788;12.904;2023-01-05T00:12:16;4.07;;;1.40;;
72037;SDS011;59900;50.788;12.904;2023-01-05T00:15:00;4.22;;;1.50;;
72037;SDS011;59900;50.788;12.904;2023-01-05T00:17:44;2.58;;;1.00;;
72037;SDS011;59900;50.788;12.904;2023-01-05T00:20:27;3.33;;;1.55;;
72037;SDS011;59900;50.788;12.904;2023-01-05T00:23:11;1.47;;;0.77;;
72037;SDS011;59900;50.788;12.904;2023-01-05T00:25:37;4.10;;;1.03;;
72037;SDS011;59900;50.788;12.904;2023-01-05T00:28:03;1.95;;;1.08;;
72037;SDS011;59900;50.788;12.904;2023-01-05T00:30:30;3.15;;;1.40;;
72037;SDS011;59900;50.788;12.904;2023-01-05T00:32:58;1.98;;;1.20;;
72037;SDS011;59900;50.788;12.904;2023-01-05T00:35:23;4.57;;;1.30;;
72037;SDS011;59900;50.788;12.904;2023-01-05T00:37:49;3.37;;;1.10;;
72037;SDS011;59900;50.788;12.904;2023-01-05T00:40:15;4.97;;;1.20;;
72037;SDS011;59900;50.788;12.904;2023-01-05T00:42:42;2.13;;;1.10;;
72037;SDS011;59900;50.788;12.904;2023-01-05T00:45:09;3.15;;;0.93;;
72037;SDS011;59900;50.788;12.904;2023-01-05T00:47:36;4.73;;;1.40;;
72037;SDS011;59900;50.788;12.904;2023-01-05T00:50:01;3.27;;;1.20;;
72037;SDS011;59900;50.788;12.904;2023-01-05T00:52:26;4.47;;;1.30;;
72037;SDS011;59900;50.788;12.904;2023-01-05T00:54:52;3.13;;;1.27;;
72037;SDS011;59900;50.788;12.904;2023-01-05T00:57:17;2.67;;;1.37;;
72037;SDS011;59900;50.788;12.904;2023-01-05T00:59:42;3.43;;;1.47;;
72037;SDS011;59900;50.788;12.904;2023-01-05T01:02:08;3.93;;;1.10;;
72037;SDS011;59900;50.788;12.904;2023-01-05T01:04:34;3.03;;;1.10;;
72037;SDS011;59900;50.788;12.904;2023-01-05T01:06:59;2.03;;;1.10;;
72037;SDS011;59900;50.788;12.904;2023-01-05T01:09:25;4.35;;;1.30;;
72037;SDS011;59900;50.788;12.904;2023-01-05T01:11:51;4.80;;;1.60;;
72037;SDS011;59900;50.788;12.904;2023-01-05T01:14:16;4.50;;;1.00;;
72037;SDS011;59900;50.788;12.904;2023-01-05T01:16:42;4.22;;;1.10;;
72037;SDS011;59900;50.788;12.904;2023-01-05T01:19:08;2.50;;;1.20;;
72037;SDS011;59900;50.788;12.904;2023-01-05T01:21:37;3.58;;;1.23;;
72037;SDS011;59900;50.788;12.904;2023-01-05T01:24:02;3.13;;;1.30;;
72037;SDS011;59900;50.788;12.904;2023-01-05T01:26:28;3.50;;;1.20;;
72037;SDS011;59900;50.788;12.904;2023-01-05T01:28:53;3.17;;;1.30;;
72037;SDS011;59900;50.788;12.904;2023-01-05T01:31:18;4.47;;;1.00;;
72037;SDS011;59900;50.788;12.904;2023-01-05T01:33:43;5.67;;;1.30;;
72037;SDS011;59900;50.788;12.904;2023-01-05T01:36:09;3.20;;;1.50;;
72037;SDS011;59900;50.788;12.904;2023-01-05T01:38:35;5.47;;;1.27;;
72037;SDS011;59900;50.788;12.904;2023-01-05T01:41:00;6.15;;;1.52;;
72037;SDS011;59900;50.788;12.904;2023-01-05T01:43:45;4.23;;;1.57;;
72037;SDS011;59900;50.788;12.904;2023-01-05T01:46:15;7.38;;;1.55;;
72037;SDS011;59900;50.788;12.904;2023-01-05T01:48:44;4.23;;;1.60;;
72037;SDS011;59900;50.788;12.904;2023-01-05T01:51:19;6.50;;;1.70;;
72037;SDS011;59900;50.788;12.904;2023-01-05T01:53:59;6.07;;;1.67;;
72037;SDS011;59900;50.788;12.904;2023-01-05T01:56:29;4.53;;;1.45;;
72037;SDS011;59900;50.788;12.904;2023-01-05T01:58:59;5.82;;;1.35;;
72037;SDS011;59900;50.788;12.904;2023-01-05T02:01:25;4.63;;;1.70;;
72037;SDS011;59900;50.788;12.904;2023-01-05T02:03:50;4.40;;;1.57;;
72037;SDS011;59900;50.788;12.904;2023-01-05T02:06:16;4.60;;;1.00;;
72037;SDS011;59900;50.788;12.904;2023-01-05T02:08:41;3.50;;;1.07;;
72037;SDS011;59900;50.788;12.904;2023-01-05T02:11:19;5.10;;;1.33;;
72037;SDS011;59900;50.788;12.904;2023-01-05T02:14:05;3.93;;;1.00;;
72037;SDS011;59900;50.788;12.904;2023-01-05T02:16:47;4.30;;;0.90;;
72037;SDS011;59900;50.788;12.904;2023-01-05T02:19:33;2.60;;;1.10;;
72037;SDS011;59900;50.788;12.904;2023-01-05T02:22:25;7.05;;;1.27;;
72037;SDS011;59900;50.788;12.904;2023-01-05T02:25:09;5.30;;;1.38;;
72037;SDS011;59900;50.788;12.904;2023-01-05T02:30:55;5.63;;;1.10;;
72037;SDS011;59900;50.788;12.904;2023-01-05T02:36:13;4.15;;;1.20;;
72037;SDS011;59900;50.788;12.904;2023-01-05T02:38:57;4.40;;;1.42;;
72037;SDS011;59900;50.788;12.904;2023-01-05T02:41:30;4.03;;;1.20;;
72037;SDS011;59900;50.788;12.904;2023-01-05T02:44:00;4.10;;;1.23;;
72037;SDS011;59900;50.788;12.904;2023-01-05T02:46:26;3.45;;;1.17;;
72037;SDS011;59900;50.788;12.904;2023-01-05T02:48:52;5.50;;;1.13;;
72037;SDS011;59900;50.788;12.904;2023-01-05T02:51:21;4.55;;;1.48;;
72037;SDS011;59900;50.788;12.904;2023-01-05T02:53:55;6.43;;;1.65;;
72037;SDS011;59900;50.788;12.904;2023-01-05T02:56:28;3.35;;;1.30;;
72037;SDS011;59900;50.788;12.904;2023-01-05T02:59:02;5.15;;;1.40;;
72037;SDS011;59900;50.788;12.904;2023-01-05T03:01:35;5.70;;;1.20;;
72037;SDS011;59900;50.788;12.904;2023-01-05T03:04:08;5.88;;;1.30;;
72037;SDS011;59900;50.788;12.904;2023-01-05T03:06:40;7.15;;;1.63;;
72037;SDS011;59900;50.788;12.904;2023-01-05T03:09:14;5.53;;;1.67;;
72037;SDS011;59900;50.788;12.904;2023-01-05T03:11:44;4.13;;;1.60;;
72037;SDS011;59900;50.788;12.904;2023-01-05T03:14:37;7.43;;;1.47;;
72037;SDS011;59900;50.788;12.904;2023-01-05T03:17:25;5.85;;;1.30;;
72037;SDS011;59900;50.788;12.904;2023-01-05T03:19:56;8.07;;;1.95;;
72037;SDS011;59900;50.788;12.904;2023-01-05T03:22:29;5.53;;;1.60;;
72037;SDS011;59900;50.788;12.904;2023-01-05T03:25:15;6.03;;;1.23;;
72037;SDS011;59900;50.788;12.904;2023-01-05T03:28:02;4.20;;;1.47;;
72037;SDS011;59900;50.788;12.904;2023-01-05T03:30:58;5.15;;;1.58;;
72037;SDS011;59900;50.788;12.904;2023-01-05T03:36:58;5.57;;;1.50;;
72037;SDS011;59900;50.788;12.904;2023-01-05T03:39:27;4.53;;;1.50;;
72037;SDS011;59900;50.788;12.904;2023-01-05T03:41:54;6.27;;;1.60;;
72037;SDS011;59900;50.788;12.904;2023-01-05T03:44:20;7.43;;;1.45;;
72037;SDS011;59900;50.788;12.904;2023-01-05T03:46:46;4.60;;;1.20;;
72037;SDS011;59900;50.788;12.904;2023-01-05T03:49:11;5.63;;;1.40;;
72037;SDS011;59900;50.788;12.904;2023-01-05T03:51:37;5.80;;;1.37;;
72037;SDS011;59900;50.788;12.904;2023-01-05T03:54:02;4.57;;;1.33;;
72037;SDS011;59900;50.788;12.904;2023-01-05T03:56:28;5.83;;;1.43;;
72037;SDS011;59900;50.788;12.904;2023-01-05T03:58:53;7.17;;;1.97;;
72037;SDS011;59900;50.788;12.904;2023-01-05T04:01:18;5.23;;;1.30;;
72037;SDS011;59900;50.788;12.904;2023-01-05T04:03:43;6.17;;;1.37;;
72037;SDS011;59900;50.788;12.904;2023-01-05T04:06:09;5.47;;;1.37;;
72037;SDS011;59900;50.788;12.904;2023-01-05T04:08:34;4.90;;;1.17;;
72037;SDS011;59900;50.788;12.904;2023-01-05T04:11:09;3.93;;;1.20;;
72037;SDS011;59900;50.788;12.904;2023-01-05T04:13:44;7.30;;;1.60;;
72037;SDS011;59900;50.788;12.904;2023-01-05T04:16:09;6.10;;;1.57;;
72037;SDS011;59900;50.788;12.904;2023-01-05T04:18:35;7.67;;;1.93;;
72037;SDS011;59900;50.788;12.904;2023-01-05T04:21:00;10.73;;;2.10;;
72037;SDS011;59900;50.788;12.904;2023-01-05T04:23:26;7.40;;;1.95;;
72037;SDS011;59900;50.788;12.904;2023-01-05T04:25:51;5.77;;;1.60;;
72037;SDS011;59900;50.788;12.904;2023-01-05T04:28:16;6.23;;;1.60;;
72037;SDS011;59900;50.788;12.904;2023-01-05T04:30:42;4.87;;;1.73;;
72037;SDS011;59900;50.788;12.904;2023-01-05T04:33:08;6.60;;;2.20;;
72037;SDS011;59900;50.788;12.904;2023-01-05T04:35:34;7.30;;;1.77;;
72037;SDS011;59900;50.788;12.904;2023-01-05T04:37:59;4.37;;;1.40;;
72037;SDS011;59900;50.788;12.904;2023-01-05T04:40:24;6.83;;;2.10;;
72037;SDS011;59900;50.788;12.904;2023-01-05T04:42:49;8.93;;;1.97;;
72037;SDS011;59900;50.788;12.904;2023-01-05T04:45:14;8.37;;;1.87;;
72037;SDS011;59900;50.788;12.904;2023-01-05T04:47:40;8.27;;;1.70;;
72037;SDS011;59900;50.788;12.904;2023-01-05T04:50:05;5.07;;;1.53;;
72037;SDS011;59900;50.788;12.904;2023-01-05T04:52:31;6.20;;;1.77;;
72037;SDS011;59900;50.788;12.904;2023-01-05T04:54:56;6.17;;;1.60;;
72037;SDS011;59900;50.788;12.904;2023-01-05T04:57:22;7.30;;;1.57;;
72037;SDS011;59900;50.788;12.904;2023-01-05T04:59:47;12.67;;;2.03;;
72037;SDS011;59900;50.788;12.904;2023-01-05T05:02:13;5.13;;;1.70;;
72037;SDS011;59900;50.788;12.904;2023-01-05T05:04:38;8.93;;;1.67;;
72037;SDS011;59900;50.788;12.904;2023-01-05T05:07:03;4.53;;;1.43;;
72037;SDS011;59900;50.788;12.904;2023-01-05T05:09:29;7.00;;;1.63;;
72037;SDS011;59900;50.788;12.904;2023-01-05T05:11:54;8.40;;;1.90;;
72037;SDS011;59900;50.788;12.904;2023-01-05T05:14:19;4.80;;;1.77;;
72037;SDS011;59900;50.788;12.904;2023-01-05T05:16:44;11.63;;;2.80;;
72037;SDS011;59900;50.788;12.904;2023-01-05T05:19:10;6.27;;;1.87;;
72037;SDS011;59900;50.788;12.904;2023-01-05T05:21:35;5.77;;;1.90;;
72037;SDS011;59900;50.788;12.904;2023-01-05T05:24:00;5.93;;;1.70;;
72037;SDS011;59900;50.788;12.904;2023-01-05T05:26:25;5.50;;;1.90;;
72037;SDS011;59900;50.788;12.904;2023-01-05T05:28:51;7.50;;;1.80;;
72037;SDS011;59900;50.788;12.904;2023-01-05T05:31:16;7.10;;;2.00;;
72037;SDS011;59900;50.788;12.904;2023-01-05T05:33:41;8.13;;;1.93;;
72037;SDS011;59900;50.788;12.904;2023-01-05T05:36:06;5.83;;;1.80;;
72037;SDS011;59900;50.788;12.904;2023-01-05T05:38:32;6.72;;;1.42;;
72037;SDS011;59900;50.788;12.904;2023-01-05T05:40:57;6.27;;;1.60;;
72037;SDS011;59900;50.788;12.904;2023-01-05T05:43:22;7.43;;;1.80;;
72037;SDS011;59900;50.788;12.904;2023-01-05T05:45:48;6.10;;;1.60;;
72037;SDS011;59900;50.788;12.904;2023-01-05T05:48:13;7.73;;;2.23;;
72037;SDS011;59900;50.788;12.904;2023-01-05T05:50:38;9.50;;;2.00;;
72037;SDS011;59900;50.788;12.904;2023-01-05T05:53:03;6.10;;;1.60;;
72037;SDS011;59900;50.788;12.904;2023-01-05T05:55:29;7.00;;;1.50;;
72037;SDS011;59900;50.788;12.904;2023-01-05T05:57:54;8.87;;;2.30;;
72037;SDS011;59900;50.788;12.904;2023-01-05T06:00:19;7.07;;;1.63;;
72037;SDS011;59900;50.788;12.904;2023-01-05T06:02:44;5.47;;;1.50;;
72037;SDS011;59900;50.788;12.904;2023-01-05T06:05:10;5.43;;;2.10;;
72037;SDS011;59900;50.788;12.904;2023-01-05T06:07:35;6.97;;;2.00;;
72037;SDS011;59900;50.788;12.904;2023-01-05T06:10:00;8.80;;;1.90;;
72037;SDS011;59900;50.788;12.904;2023-01-05T06:12:25;8.53;;;2.00;;
72037;SDS011;59900;50.788;12.904;2023-01-05T06:14:51;8.17;;;2.00;;
72037;SDS011;59900;50.788;12.904;2023-01-05T06:17:16;5.33;;;1.87;;
72037;SDS011;59900;50.788;12.904;2023-01-05T06:19:41;5.13;;;2.03;;
72037;SDS011;59900;50.788;12.904;2023-01-05T06:22:06;8.47;;;2.27;;
72037;SDS011;59900;50.788;12.904;2023-01-05T06:24:31;6.87;;;1.67;;
72037;SDS011;59900;50.788;12.904;2023-01-05T06:26:57;7.20;;;1.73;;
72037;SDS011;59900;50.788;12.904;2023-01-05T06:29:22;6.50;;;1.60;;
72037;SDS011;59900;50.788;12.904;2023-01-05T06:31:47;5.47;;;1.37;;
72037;SDS011;59900;50.788;12.904;2023-01-05T06:34:12;7.23;;;1.87;;
72037;SDS011;59900;50.788;12.904;2023-01-05T06:36:38;7.30;;;1.60;;
72037;SDS011;59900;50.788;12.904;2023-01-05T06:39:03;5.40;;;2.10;;
72037;SDS011;59900;50.788;12.904;2023-01-05T06:41:28;5.93;;;1.37;;
72037;SDS011;59900;50.788;12.904;2023-01-05T06:43:54;4.40;;;1.40;;
72037;SDS011;59900;50.788;12.904;2023-01-05T06:46:20;5.45;;;1.83;;
72037;SDS011;59900;50.788;12.904;2023-01-05T06:48:45;6.30;;;1.77;;
72037;SDS011;59900;50.788;12.904;2023-01-05T06:51:10;7.30;;;2.03;;
72037;SDS011;59900;50.788;12.904;2023-01-05T06:53:35;5.60;;;2.17;;
72037;SDS011;59900;50.788;12.904;2023-01-05T06:56:00;7.40;;;1.97;;
72037;SDS011;59900;50.788;12.904;2023-01-05T06:58:26;5.77;;;1.60;;
72037;SDS011;59900;50.788;12.904;2023-01-05T07:00:52;7.10;;;2.03;;
72037;SDS011;59900;50.788;12.904;2023-01-05T07:03:18;4.70;;;1.43;;
72037;SDS011;59900;50.788;12.904;2023-01-05T07:05:43;6.07;;;1.80;;
72037;SDS011;59900;50.788;12.904;2023-01-05T07:08:08;6.67;;;1.77;;
72037;SDS011;59900;50.788;12.904;2023-01-05T07:10:33;5.10;;;1.80;;
72037;SDS011;59900;50.788;12.904;2023-01-05T07:12:58;10.97;;;1.97;;
72037;SDS011;59900;50.788;12.904;2023-01-05T07:15:24;7.90;;;2.00;;
72037;SDS011;59900;50.788;12.904;2023-01-05T07:17:49;8.60;;;2.20;;
72037;SDS011;59900;50.788;12.904;2023-01-05T07:20:14;6.07;;;1.80;;
72037;SDS011;59900;50.788;12.904;2023-01-05T07:22:39;6.00;;;1.80;;
72037;SDS011;59900;50.788;12.904;2023-01-05T07:25:05;4.20;;;1.77;;
72037;SDS011;59900;50.788;12.904;2023-01-05T07:27:32;4.47;;;1.88;;
72037;SDS011;59900;50.788;12.904;2023-01-05T07:29:57;5.43;;;1.70;;
72037;SDS011;59900;50.788;12.904;2023-01-05T07:32:23;8.10;;;1.80;;
72037;SDS011;59900;50.788;12.904;2023-01-05T07:34:48;8.60;;;1.90;;
72037;SDS011;59900;50.788;12.904;2023-01-05T07:37:13;8.70;;;2.20;;
72037;SDS011;59900;50.788;12.904;2023-01-05T07:39:39;8.23;;;2.13;;
72037;SDS011;59900;50.788;12.904;2023-01-05T07:42:04;5.77;;;1.87;;
72037;SDS011;59900;50.788;12.904;2023-01-05T07:44:29;5.07;;;2.27;;
72037;SDS011;59900;50.788;12.904;2023-01-05T07:46:54;5.90;;;2.40;;
72037;SDS011;59900;50.788;12.904;2023-01-05T07:49:20;6.07;;;2.00;;
72037;SDS011;59900;50.788;12.904;2023-01-05T07:51:45;6.57;;;2.10;;
72037;SDS011;59900;50.788;12.904;2023-01-05T07:54:10;6.47;;;2.20;;
72037;SDS011;59900;50.788;12.904;2023-01-05T07:56:35;7.23;;;1.60;;
72037;SDS011;59900;50.788;12.904;2023-01-05T07:59:01;5.77;;;2.00;;
72037;SDS011;59900;50.788;12.904;2023-01-05T08:01:26;7.63;;;2.03;;
72037;SDS011;59900;50.788;12.904;2023-01-05T08:03:51;7.00;;;2.00;;
72037;SDS011;59900;50.788;12.904;2023-01-05T08:06:17;7.83;;;2.13;;
72037;SDS011;59900;50.788;12.904;2023-01-05T08:08:44;6.53;;;1.63;;
72037;SDS011;59900;50.788;12.904;2023-01-05T08:11:10;7.18;;;2.45;;
72037;SDS011;59900;50.788;12.904;2023-01-05T08:13:39;9.77;;;2.35;;
72037;SDS011;59900;50.788;12.904;2023-01-05T08:16:23;7.10;;;2.38;;
72037;SDS011;59900;50.788;12.904;2023-01-05T08:18:48;9.03;;;2.17;;
72037;SDS011;59900;50.788;12.904;2023-01-05T08:21:14;8.87;;;1.97;;
72037;SDS011;59900;50.788;12.904;2023-01-05T08:23:39;7.90;;;1.87;;
72037;SDS011;59900;50.788;12.904;2023-01-05T08:26:05;4.57;;;1.70;;
72037;SDS011;59900;50.788;12.904;2023-01-05T08:28:33;6.50;;;1.70;;
72037;SDS011;59900;50.788;12.904;2023-01-05T08:31:03;7.60;;;1.83;;
72037;SDS011;59900;50.788;12.904;2023-01-05T08:33:34;9.93;;;2.00;;
72037;SDS011;59900;50.788;12.904;2023-01-05T08:36:00;7.40;;;2.00;;
72037;SDS011;59900;50.788;12.904;2023-01-05T08:38:25;6.70;;;2.37;;
72037;SDS011;59900;50.788;12.904;2023-01-05T08:40:51;11.23;;;2.00;;
72037;SDS011;59900;50.788;12.904;2023-01-05T08:43:16;5.95;;;2.00;;
72037;SDS011;59900;50.788;12.904;2023-01-05T08:45:42;6.07;;;2.17;;
72037;SDS011;59900;50.788;12.904;2023-01-05T08:48:11;7.60;;;2.22;;
72037;SDS011;59900;50.788;12.904;2023-01-05T08:50:36;7.30;;;2.23;;
72037;SDS011;59900;50.788;12.904;2023-01-05T08:53:02;9.83;;;2.03;;
72037;SDS011;59900;50.788;12.904;2023-01-05T08:55:27;5.27;;;1.67;;
72037;SDS011;59900;50.788;12.904;2023-01-05T08:57:53;6.43;;;2.03;;
72037;SDS011;59900;50.788;12.904;2023-01-05T09:00:20;8.90;;;2.70;;
72037;SDS011;59900;50.788;12.904;2023-01-05T09:02:46;7.22;;;2.10;;
72037;SDS011;59900;50.788;12.904;2023-01-05T09:05:12;8.13;;;2.20;;
72037;SDS011;59900;50.788;12.904;2023-01-05T09:07:37;6.20;;;1.90;;
72037;SDS011;59900;50.788;12.904;2023-01-05T09:10:03;8.67;;;1.67;;
72037;SDS011;59900;50.788;12.904;2023-01-05T09:12:29;5.75;;;1.58;;
72037;SDS011;59900;50.788;12.904;2023-01-05T09:14:54;6.03;;;1.87;;
72037;SDS011;59900;50.788;12.904;2023-01-05T09:17:19;7.23;;;2.17;;
72037;SDS011;59900;50.788;12.904;2023-01-05T09:19:44;4.33;;;1.73;;
72037;SDS011;59900;50.788;12.904;2023-01-05T09:22:10;4.93;;;1.60;;
72037;SDS011;59900;50.788;12.904;2023-01-05T09:24:35;7.83;;;2.07;;
72037;SDS011;59900;50.788;12.904;2023-01-05T09:27:00;7.73;;;1.80;;
72037;SDS011;59900;50.788;12.904;2023-01-05T09:29:27;7.20;;;2.13;;
72037;SDS011;59900;50.788;12.904;2023-01-05T09:31:52;6.33;;;1.80;;
72037;SDS011;59900;50.788;12.904;2023-01-05T09:34:18;7.00;;;2.20;;
72037;SDS011;59900;50.788;12.904;2023-01-05T09:36:43;6.70;;;2.00;;
72037;SDS011;59900;50.788;12.904;2023-01-05T09:39:08;3.25;;;1.60;;
72037;SDS011;59900;50.788;12.904;2023-01-05T09:41:44;3.70;;;2.03;;
72037;SDS011;59900;50.788;12.904;2023-01-05T09:47:03;8.48;;;2.45;;
72037;SDS011;59900;50.788;12.904;2023-01-05T09:49:37;6.55;;;2.20;;
72037;SDS011;59900;50.788;12.904;2023-01-05T09:52:05;6.90;;;2.10;;
72037;SDS011;59900;50.788;12.904;2023-01-05T09:54:35;6.20;;;2.10;;
72037;SDS011;59900;50.788;12.904;2023-01-05T09:57:01;7.95;;;1.75;;
72037;SDS011;59900;50.788;12.904;2023-01-05T09:59:28;10.05;;;2.13;;
72037;SDS011;59900;50.788;12.904;2023-01-05T10:01:58;7.40;;;2.20;;
72037;SDS011;59900;50.788;12.904;2023-01-05T10:04:26;7.00;;;2.23;;
72037;SDS011;59900;50.788;12.904;2023-01-05T10:06:56;7.90;;;2.22;;
72037;SDS011;59900;50.788;12.904;2023-01-05T10:09:31;8.25;;;1.73;;
72037;SDS011;59900;50.788;12.904;2023-01-05T10:12:20;9.15;;;2.03;;
72037;SDS011;59900;50.788;12.904;2023-01-05T10:15:10;5.18;;;1.77;;
72037;SDS011;59900;50.788;12.904;2023-01-05T10:17:37;8.37;;;2.03;;
72037;SDS011;59900;50.788;12.904;2023-01-05T10:20:12;6.40;;;2.38;;
72037;SDS011;59900;50.788;12.904;2023-01-05T10:22:51;5.70;;;1.88;;
72037;SDS011;59900;50.788;12.904;2023-01-05T10:25:33;10.00;;;2.40;;
72037;SDS011;59900;50.788;12.904;2023-01-05T10:28:22;7.03;;;1.90;;
72037;SDS011;59900;50.788;12.904;2023-01-05T10:31:03;10.03;;;2.40;;
72037;SDS011;59900;50.788;12.904;2023-01-05T10:33:40;6.95;;;1.80;;
72037;SDS011;59900;50.788;12.904;2023-01-05T10:39:06;7.90;;;1.65;;
72037;SDS011;59900;50.788;12.904;2023-01-05T10:41:49;10.10;;;2.10;;
72037;SDS011;59900;50.788;12.904;2023-01-05T10:47:12;6.25;;;2.05;;
72037;SDS011;59900;50.788;12.904;2023-01-05T10:49:39;7.78;;;2.55;;
72037;SDS011;59900;50.788;12.904;2023-01-05T10:52:07;7.68;;;2.20;;
72037;SDS011;59900;50.788;12.904;2023-01-05T10:54:38;7.20;;;1.73;;
72037;SDS011;59900;50.788;12.904;2023-01-05T10:59:54;5.53;;;2.03;;
72037;SDS011;59900;50.788;12.904;2023-01-05T11:02:30;7.95;;;1.83;;
72037;SDS011;59900;50.788;12.904;2023-01-05T11:05:03;6.05;;;1.63;;
72037;SDS011;59900;50.788;12.904;2023-01-05T11:07:31;5.07;;;2.10;;
72037;SDS011;59900;50.788;12.904;2023-01-05T11:09:56;7.22;;;2.17;;
72037;SDS011;59900;50.788;12.904;2023-01-05T11:12:22;6.83;;;2.23;;
72037;SDS011;59900;50.788;12.904;2023-01-05T11:14:53;7.88;;;2.35;;
72037;SDS011;59900;50.788;12.904;2023-01-05T11:17:21;7.23;;;1.97;;
72037;SDS011;59900;50.788;12.904;2023-01-05T11:19:49;4.43;;;1.77;;
72037;SDS011;59900;50.788;12.904;2023-01-05T11:22:26;6.18;;;1.80;;
72037;SDS011;59900;50.788;12.904;2023-01-05T11:24:52;6.72;;;1.58;;
72037;SDS011;59900;50.788;12.904;2023-01-05T11:29:43;5.07;;;1.60;;
72037;SDS011;59900;50.788;12.904;2023-01-05T11:32:09;4.13;;;1.67;;
72037;SDS011;59900;50.788;12.904;2023-01-05T11:34:45;6.88;;;2.72;;
72037;SDS011;59900;50.788;12.904;2023-01-05T11:37:20;5.32;;;1.90;;
72037;SDS011;59900;50.788;12.904;2023-01-05T11:39:49;5.73;;;2.10;;
72037;SDS011;59900;50.788;12.904;2023-01-05T11:47:48;5.53;;;1.88;;
72037;SDS011;59900;50.788;12.904;2023-01-05T11:50:22;9.50;;;1.98;;
72037;SDS011;59900;50.788;12.904;2023-01-05T11:52:50;5.77;;;1.87;;
72037;SDS011;59900;50.788;12.904;2023-01-05T11:57:49;4.38;;;1.98;;
72037;SDS011;59900;50.788;12.904;2023-01-05T12:00:26;5.68;;;2.17;;
72037;SDS011;59900;50.788;12.904;2023-01-05T12:03:08;6.47;;;1.67;;
72037;SDS011;59900;50.788;12.904;2023-01-05T12:05:50;6.77;;;2.20;;
72037;SDS011;59900;50.788;12.904;2023-01-05T12:11:19;5.25;;;2.10;;
72037;SDS011;59900;50.788;12.904;2023-01-05T12:14:05;5.72;;;1.83;;
72037;SDS011;59900;50.788;12.904;2023-01-05T12:16:44;5.60;;;2.15;;
72037;SDS011;59900;50.788;12.904;2023-01-05T12:30:47;4.65;;;2.00;;
72037;SDS011;59900;50.788;12.904;2023-01-05T12:33:40;3.30;;;1.73;;
72037;SDS011;59900;50.788;12.904;2023-01-05T12:39:30;5.78;;;1.85;;
72037;SDS011;59900;50.788;12.904;2023-01-05T12:47:55;3.93;;;1.57;;
72037;SDS011;59900;50.788;12.904;2023-01-05T12:50:26;5.60;;;2.25;;
72037;SDS011;59900;50.788;12.904;2023-01-05T12:52:58;6.38;;;2.10;;
72037;SDS011;59900;50.788;12.904;2023-01-05T12:55:42;4.63;;;1.52;;
72037;SDS011;59900;50.788;12.904;2023-01-05T13:00:59;5.10;;;2.00;;
72037;SDS011;59900;50.788;12.904;2023-01-05T13:06:38;4.03;;;1.73;;
72037;SDS011;59900;50.788;12.904;2023-01-05T13:09:18;7.15;;;1.90;;
72037;SDS011;59900;50.788;12.904;2023-01-05T13:11:54;8.85;;;1.63;;
72037;SDS011;59900;50.788;12.904;2023-01-05T13:14:27;3.80;;;1.90;;
72037;SDS011;59900;50.788;12.904;2023-01-05T13:17:03;3.25;;;1.42;;
72037;SDS011;59900;50.788;12.904;2023-01-05T13:19:37;4.68;;;1.65;;
72037;SDS011;59900;50.788;12.904;2023-01-05T13:22:13;4.30;;;2.05;;
72037;SDS011;59900;50.788;12.904;2023-01-05T13:24:54;10.65;;;2.50;;
72037;SDS011;59900;50.788;12.904;2023-01-05T13:27:25;3.40;;;1.53;;
72037;SDS011;59900;50.788;12.904;2023-01-05T13:29:53;6.35;;;1.70;;
72037;SDS011;59900;50.788;12.904;2023-01-05T13:32:28;5.13;;;1.98;;
72037;SDS011;59900;50.788;12.904;2023-01-05T13:38:05;4.95;;;1.80;;
72037;SDS011;59900;50.788;12.904;2023-01-05T13:43:31;3.78;;;1.77;;
72037;SDS011;59900;50.788;12.904;2023-01-05T13:51:49;4.82;;;1.85;;
72037;SDS011;59900;50.788;12.904;2023-01-05T13:57:05;4.28;;;1.63;;
72037;SDS011;59900;50.788;12.904;2023-01-05T13:59:33;6.38;;;1.83;;
72037;SDS011;59900;50.788;12.904;2023-01-05T14:02:00;4.90;;;1.75;;
72037;SDS011;59900;50.788;12.904;2023-01-05T14:04:28;5.45;;;1.60;;
72037;SDS011;59900;50.788;12.904;2023-01-05T14:06:56;5.37;;;1.40;;
72037;SDS011;59900;50.788;12.904;2023-01-05T14:09:26;7.68;;;1.60;;
72037;SDS011;59900;50.788;12.904;2023-01-05T14:14:56;6.95;;;1.98;;
72037;SDS011;59900;50.788;12.904;2023-01-05T14:17:49;5.18;;;2.28;;
72037;SDS011;59900;50.788;12.904;2023-01-05T14:23:51;3.28;;;1.77;;
72037;SDS011;59900;50.788;12.904;2023-01-05T14:26:03;4.90;;;1.83;;
72037;SDS011;59900;50.788;12.904;2023-01-05T14:36:23;4.20;;;1.50;;
72037;SDS011;59900;50.788;12.904;2023-01-05T14:38:58;3.92;;;1.58;;
72037;SDS011;59900;50.788;12.904;2023-01-05T14:41:26;4.85;;;2.00;;
72037;SDS011;59900;50.788;12.904;2023-01-05T14:43:54;5.15;;;1.73;;
72037;SDS011;59900;50.788;12.904;2023-01-05T14:46:22;6.07;;;1.87;;
72037;SDS011;59900;50.788;12.904;2023-01-05T14:49:06;5.38;;;2.22;;
72037;SDS011;59900;50.788;12.904;2023-01-05T14:51:40;4.70;;;1.40;;
72037;SDS011;59900;50.788;12.904;2023-01-05T14:54:17;5.50;;;1.52;;
72037;SDS011;59900;50.788;12.904;2023-01-05T14:59:47;3.80;;;1.60;;
72037;SDS011;59900;50.788;12.904;2023-01-05T15:02:16;4.70;;;1.55;;
72037;SDS011;59900;50.788;12.904;2023-01-05T15:04:46;5.15;;;1.58;;
72037;SDS011;59900;50.788;12.904;2023-01-05T15:10:24;5.30;;;2.05;;
72037;SDS011;59900;50.788;12.904;2023-01-05T15:16:41;3.85;;;1.55;;
72037;SDS011;59900;50.788;12.904;2023-01-05T15:19:30;4.53;;;1.95;;
72037;SDS011;59900;50.788;12.904;2023-01-05T15:22:31;4.95;;;2.17;;
72037;SDS011;59900;50.788;12.904;2023-01-05T15:25:28;4.45;;;2.20;;
72037;SDS011;59900;50.788;12.904;2023-01-05T15:31:05;6.25;;;2.10;;
72037;SDS011;59900;50.788;12.904;2023-01-05T15:33:43;6.88;;;2.20;;
72037;SDS011;59900;50.788;12.904;2023-01-05T15:36:27;5.85;;;2.30;;
72037;SDS011;59900;50.788;12.904;2023-01-05T15:38:56;3.88;;;2.00;;
72037;SDS011;59900;50.788;12.904;2023-01-05T15:41:21;7.37;;;2.40;;
72037;SDS011;59900;50.788;12.904;2023-01-05T15:43:49;4.88;;;2.03;;
72037;SDS011;59900;50.788;12.904;2023-01-05T15:46:22;6.28;;;2.15;;
72037;SDS011;59900;50.788;12.904;2023-01-05T15:48:55;4.53;;;2.00;;
72037;SDS011;59900;50.788;12.904;2023-01-05T15:51:20;4.83;;;2.03;;
72037;SDS011;59900;50.788;12.904;2023-01-05T15:53:52;5.85;;;2.30;;
72037;SDS011;59900;50.788;12.904;2023-01-05T15:56:26;9.83;;;2.30;;
72037;SDS011;59900;50.788;12.904;2023-01-05T15:58:55;6.70;;;1.73;;
72037;SDS011;59900;50.788;12.904;2023-01-05T16:01:21;4.88;;;2.10;;
72037;SDS011;59900;50.788;12.904;2023-01-05T16:03:47;4.13;;;2.13;;
72037;SDS011;59900;50.788;12.904;2023-01-05T16:06:14;5.72;;;2.00;;
72037;SDS011;59900;50.788;12.904;2023-01-05T16:08:43;5.63;;;1.60;;
72037;SDS011;59900;50.788;12.904;2023-01-05T16:11:12;4.13;;;1.80;;
72037;SDS011;59900;50.788;12.904;2023-01-05T16:13:56;6.15;;;2.10;;
72037;SDS011;59900;50.788;12.904;2023-01-05T16:16:30;6.47;;;1.80;;
72037;SDS011;59900;50.788;12.904;2023-01-05T16:19:03;5.60;;;2.50;;
72037;SDS011;59900;50.788;12.904;2023-01-05T16:21:40;6.77;;;2.00;;
72037;SDS011;59900;50.788;12.904;2023-01-05T16:24:16;4.60;;;1.90;;
72037;SDS011;59900;50.788;12.904;2023-01-05T16:26:47;5.65;;;2.67;;
72037;SDS011;59900;50.788;12.904;2023-01-05T16:29:17;5.90;;;2.50;;